This is the latest recevied weather packets stored in our database for station/object KK7KRZ. If no packets are shown the sender has not sent any weather packets the latest 1 day(s).
| Time | Temp. | Humidity | Pressure | Rain* | Wind** | Luminosity | Snow |
|---|---|---|---|---|---|---|---|
| 1778099084 | 19.44° C | 69% | 1020.5 hPa | 0 mm | - | 728 W/m² | - |
| 1778098781 | 18.89° C | 71% | 1020.6 hPa | 0 mm | - | 334 W/m² | - |
| 1778097871 | 18.89° C | 76% | 1020.8 hPa | 0 mm | - | 230 W/m² | - |
| 1778096961 | 18.89° C | 72% | 1020.9 hPa | 0 mm | - | 830 W/m² | - |
| 1778096052 | 18.33° C | 73% | 1020.9 hPa | 0 mm | - | 247 W/m² | - |
| 1778094232 | 16.67° C | 79% | 1021.1 hPa | 0 mm | - | 520 W/m² | - |
| 1778093929 | 16.11° C | 81% | 1021.2 hPa | 0 mm | - | 242 W/m² | - |
| 1778093626 | 15.56° C | 81% | 1021.3 hPa | 0 mm | - | 313 W/m² | - |
| 1778093323 | 16.67° C | 79% | 1021.2 hPa | 0 mm | - | 285 W/m² | - |
| 1778093020 | 16.11° C | 82% | 1021 hPa | 0 mm | - | 244 W/m² | - |
| 1778092110 | 16.11° C | 83% | 1021.1 hPa | 0 mm | - | 193 W/m² | - |
| 1778091505 | 15.56° C | 83% | 1021.1 hPa | 0 mm | - | 202 W/m² | - |
| 1778090292 | 15° C | 85% | 1021 hPa | 0 mm | - | 219 W/m² | - |
| 1778089681 | 14.44° C | 86% | 1021 hPa | 0 mm | - | 138 W/m² | - |
| 1778088469 | 14.44° C | 86% | 1021.4 hPa | 0 mm | - | 101 W/m² | - |
| 1778086954 | 13.33° C | 89% | 1020.8 hPa | 0 mm | - | 126 W/m² | - |
| 1778086653 | 13.33° C | 88% | 1021.2 hPa | 0 mm | - | 111 W/m² | - |
| 1778086047 | 13.33° C | 89% | 1021.1 hPa | 0 mm | - | 95 W/m² | - |
| 1778085440 | 13.33° C | 90% | 1021.1 hPa | 0 mm | - | 116 W/m² | - |
| 1778085135 | 12.78° C | 90% | 1021 hPa | 0 mm | - | 121 W/m² | - |
| 1778084529 | 12.78° C | 90% | 1021.2 hPa | 0 mm | - | 88 W/m² | - |
| 1778084226 | 12.78° C | 90% | 1020.8 hPa | 0 mm | - | 103 W/m² | - |
| 1778083620 | 12.78° C | 91% | 1020.5 hPa | 0 mm | - | 127 W/m² | - |
| 1778080974 | 11.67° C | 91% | 1021 hPa | 0 mm | - | 47 W/m² | - |
| 1778080673 | 11.67° C | 91% | 1021.2 hPa | 0 mm | - | 35 W/m² | - |
* Rain latest hour (hover to see other rain measurements)
** Current wind speed in m/s (hover to see current wind gust speed)